createdAt,value
2023-06-07T00:04:04.192Z,97172.31
2023-06-07T00:09:08.191Z,97165.81
2023-06-07T00:14:10.634Z,97166.41
2023-06-07T00:19:12.550Z,97172.69
2023-06-07T00:24:14.379Z,97157.53
2023-06-07T00:29:16.639Z,97158.78
2023-06-07T00:34:18.593Z,97156.19
2023-06-07T00:39:20.535Z,97154.44
2023-06-07T00:44:22.280Z,97155.84
2023-06-07T00:49:24.407Z,97162.88
2023-06-07T00:54:26.203Z,97158.41
2023-06-07T00:59:29.006Z,97155.41
2023-06-07T01:04:31.636Z,97151.69
2023-06-07T01:09:33.407Z,97147.88
2023-06-07T01:14:35.744Z,97152.16
2023-06-07T01:19:38.400Z,97158.84
2023-06-07T01:24:44.074Z,97149.56
2023-06-07T01:29:48.024Z,97148.28
2023-06-07T01:34:51.884Z,97148.41
2023-06-07T01:39:56.807Z,97153.31
2023-06-07T01:44:59.452Z,97150.44
2023-06-07T01:50:02.406Z,97156.53
2023-06-07T01:55:07.008Z,97144.16
2023-06-07T02:00:26.932Z,97142.31
2023-06-07T02:05:51.364Z,97146.19
2023-06-07T02:10:53.435Z,97138.56
2023-06-07T02:15:55.414Z,97145.78
2023-06-07T02:20:57.209Z,97143.69
2023-06-07T02:25:59.333Z,97139.31
2023-06-07T02:31:01.095Z,97142.00
2023-06-07T02:36:03.913Z,97145.56
2023-06-07T02:41:05.863Z,97149.34
2023-06-07T02:46:08.354Z,97148.13
2023-06-07T02:51:10.145Z,97159.63
2023-06-07T02:56:12.897Z,97153.56
2023-06-07T03:01:15.542Z,97156.88
2023-06-07T03:06:23.229Z,97155.88
2023-06-07T03:11:26.405Z,97149.25
2023-06-07T03:16:29.337Z,97162.94
2023-06-07T03:21:35.906Z,97163.47
2023-06-07T03:26:41.667Z,97166.31
2023-06-07T03:31:44.597Z,97168.00
2023-06-07T03:36:51.180Z,97174.63
2023-06-07T03:41:54.640Z,97174.59
2023-06-07T03:47:00.255Z,97175.31
2023-06-07T03:52:03.842Z,97184.84
2023-06-07T03:57:08.255Z,97192.78
2023-06-07T04:02:15.609Z,97186.66
2023-06-07T04:07:18.354Z,97192.41
2023-06-07T04:12:20.255Z,97189.81
2023-06-07T04:17:22.870Z,97193.66
2023-06-07T04:22:25.649Z,97195.25
2023-06-07T04:27:30.692Z,97194.06
2023-06-07T04:32:34.421Z,97194.28
2023-06-07T04:37:38.690Z,97200.53
2023-06-07T04:42:41.712Z,97201.09
2023-06-07T04:47:46.198Z,97204.31
2023-06-07T04:52:50.693Z,97215.19
2023-06-07T04:57:55.313Z,97219.72
2023-06-07T05:02:59.575Z,97217.09
2023-06-07T05:08:02.377Z,97215.16
2023-06-07T05:13:04.450Z,97216.00
2023-06-07T05:18:08.338Z,97214.09
2023-06-07T05:23:10.391Z,97213.97
2023-06-07T05:28:14.175Z,97218.22
2023-06-07T05:33:22.148Z,97219.66
2023-06-07T05:38:24.042Z,97220.00
2023-06-07T05:43:26.187Z,97217.09
2023-06-07T05:48:28.208Z,97224.16
2023-06-07T05:53:30.259Z,97233.78
2023-06-07T05:58:32.578Z,97238.50
2023-06-07T06:03:34.384Z,97227.69
2023-06-07T06:08:36.132Z,97231.19
2023-06-07T06:13:38.756Z,97229.28
2023-06-07T06:18:42.963Z,97239.97
2023-06-07T06:23:45.185Z,97241.59
2023-06-07T06:28:47.272Z,97245.81
2023-06-07T06:33:49.064Z,97253.84
2023-06-07T06:38:51.792Z,97242.22
2023-06-07T06:43:53.429Z,97245.22
2023-06-07T06:49:11.510Z,97246.25
2023-06-07T06:54:14.764Z,97245.47
2023-06-07T06:59:17.351Z,97256.03
2023-06-07T07:04:19.184Z,97259.16
2023-06-07T07:09:21.429Z,97264.50
2023-06-07T07:14:23.386Z,97269.59
2023-06-07T07:19:25.141Z,97268.59
2023-06-07T07:24:27.228Z,97254.53
2023-06-07T07:29:29.263Z,97245.50
2023-06-07T07:34:31.316Z,97250.72
2023-06-07T07:39:33.124Z,97252.56
2023-06-07T07:44:35.526Z,97256.06
2023-06-07T07:49:37.289Z,97255.72
2023-06-07T07:54:39.430Z,97258.88
2023-06-07T07:59:41.246Z,97255.53
2023-06-07T08:04:43.267Z,97254.44
2023-06-07T08:09:45.485Z,97250.91
2023-06-07T08:14:47.227Z,97244.06
2023-06-07T08:19:49.824Z,97247.72
2023-06-07T08:24:51.676Z,97246.72
2023-06-07T08:29:53.332Z,97233.50
2023-06-07T08:34:56.763Z,97236.38
2023-06-07T08:39:58.507Z,97239.72
2023-06-07T08:45:01.216Z,97243.97
2023-06-07T08:50:05.319Z,97233.41
2023-06-07T08:55:12.980Z,97241.53
2023-06-07T09:00:15.443Z,97241.31
2023-06-07T09:05:18.156Z,97239.38
2023-06-07T09:10:19.957Z,97233.84
2023-06-07T09:15:22.757Z,97235.16
2023-06-07T09:20:28.520Z,97234.84
2023-06-07T09:25:31.432Z,97222.75
2023-06-07T09:30:33.430Z,97223.25
2023-06-07T09:35:35.215Z,97220.78
2023-06-07T09:40:37.220Z,97224.97
2023-06-07T09:45:39.058Z,97221.19
2023-06-07T09:50:56.025Z,97226.25
2023-06-07T09:55:58.061Z,97221.13
2023-06-07T10:00:59.921Z,97213.97
2023-06-07T10:06:02.053Z,97214.19
2023-06-07T10:11:04.223Z,97211.06
2023-06-07T10:16:11.444Z,97214.91
2023-06-07T10:21:19.270Z,97214.50
2023-06-07T10:26:26.251Z,97202.44
2023-06-07T10:31:33.130Z,97204.88
2023-06-07T10:36:44.053Z,97194.53
2023-06-07T10:41:46.738Z,97204.47
2023-06-07T10:46:52.042Z,97192.50
2023-06-07T10:52:00.326Z,97177.25
2023-06-07T10:57:06.280Z,97178.59
2023-06-07T11:02:22.497Z,97181.22
2023-06-07T11:07:29.748Z,97179.38
2023-06-07T11:12:46.119Z,97173.69
2023-06-07T11:17:53.540Z,97171.72
2023-06-07T11:23:18.091Z,97167.63
2023-06-07T11:28:28.732Z,97162.66
2023-06-07T11:33:31.702Z,97161.41
2023-06-07T11:38:34.054Z,97160.41
2023-06-07T11:43:36.966Z,97156.63
2023-06-07T11:48:39.143Z,97150.47
2023-06-07T11:53:42.367Z,97148.19
2023-06-07T11:58:44.622Z,97133.78
2023-06-07T12:03:47.919Z,97134.72
2023-06-07T12:08:52.861Z,97126.88
2023-06-07T12:13:55.108Z,97125.06
2023-06-07T12:18:57.253Z,97116.72
2023-06-07T12:24:01.807Z,97105.00
2023-06-07T12:29:04.324Z,97100.81
2023-06-07T12:34:07.430Z,97095.56
2023-06-07T12:39:11.196Z,97091.63
2023-06-07T12:44:13.666Z,97094.75
2023-06-07T12:49:16.295Z,97082.13
2023-06-07T12:54:18.341Z,97069.59
2023-06-07T12:59:20.158Z,97063.03
2023-06-07T13:04:22.886Z,97069.69
2023-06-07T13:09:26.147Z,97067.38
2023-06-07T13:14:28.060Z,97055.72
2023-06-07T13:19:30.046Z,97053.88
2023-06-07T13:24:33.606Z,97053.22
2023-06-07T13:29:35.645Z,97049.53
2023-06-07T13:39:40.150Z,97048.94
2023-06-07T13:44:42.099Z,97045.47
2023-06-07T13:49:43.945Z,97035.47
2023-06-07T13:54:47.547Z,97028.56
2023-06-07T13:59:49.300Z,97029.44
2023-06-07T14:04:52.640Z,97022.59
2023-06-07T14:09:54.424Z,97007.50
2023-06-07T14:14:56.080Z,97004.22
2023-06-07T14:19:57.932Z,96990.50
2023-06-07T14:25:00.168Z,97001.75
2023-06-07T14:30:02.128Z,96986.69
2023-06-07T14:35:04.299Z,96987.44
2023-06-07T14:40:07.524Z,96987.50
2023-06-07T14:45:09.782Z,96988.25
2023-06-07T14:50:11.914Z,96989.34
2023-06-07T14:55:14.018Z,96992.41
2023-06-07T15:00:16.693Z,96981.88
2023-06-07T15:05:18.867Z,96988.66
2023-06-07T15:10:21.044Z,96976.28
2023-06-07T15:15:22.983Z,96970.44
2023-06-07T15:20:25.206Z,96964.13
2023-06-07T15:25:27.315Z,96964.56
2023-06-07T15:30:29.065Z,96962.91
2023-06-07T15:35:31.040Z,96961.78
2023-06-07T15:40:32.774Z,96951.34
2023-06-07T15:45:36.122Z,96950.06
2023-06-07T15:50:38.737Z,96939.91
2023-06-07T15:55:41.722Z,96938.00
2023-06-07T16:00:47.893Z,96938.09
2023-06-07T16:05:50.342Z,96936.19
2023-06-07T16:10:53.197Z,96932.06
2023-06-07T16:15:54.909Z,96926.59
2023-06-07T16:20:56.761Z,96928.22
2023-06-07T16:25:58.557Z,96915.00
2023-06-07T16:31:00.484Z,96914.00
2023-06-07T16:36:02.225Z,96914.38
2023-06-07T16:41:05.986Z,96920.03
2023-06-07T16:46:07.821Z,96921.66
2023-06-07T16:51:10.100Z,96912.47
2023-06-07T16:56:12.682Z,96917.13
2023-06-07T17:01:14.462Z,96910.56
2023-06-07T17:06:16.707Z,96907.63
2023-06-07T17:11:18.699Z,96904.88
2023-06-07T17:16:20.711Z,96899.63
2023-06-07T17:21:22.523Z,96904.03
2023-06-07T17:26:24.678Z,96915.28
2023-06-07T17:31:26.800Z,96916.06
2023-06-07T17:36:28.900Z,96916.72
2023-06-07T17:41:30.654Z,96918.28
2023-06-07T17:46:34.337Z,96913.81
2023-06-07T17:51:37.361Z,96911.34
2023-06-07T17:56:39.930Z,96905.59
2023-06-07T18:01:42.883Z,96899.34
2023-06-07T18:06:44.707Z,96906.72
2023-06-07T18:11:46.944Z,96908.72
2023-06-07T18:16:48.783Z,96908.13
2023-06-07T18:21:53.057Z,96911.88
2023-06-07T18:26:58.089Z,96914.97
2023-06-07T18:32:00.116Z,96912.81
2023-06-07T18:37:02.773Z,96915.66
2023-06-07T18:42:05.246Z,96914.03
2023-06-07T18:47:07.434Z,96913.47
2023-06-07T18:52:11.826Z,96910.81
2023-06-07T18:57:13.707Z,96917.63
2023-06-07T19:02:15.574Z,96918.50
2023-06-07T19:07:17.530Z,96919.09
2023-06-07T19:12:19.344Z,96931.00
2023-06-07T19:17:22.976Z,96931.97
2023-06-07T19:22:24.805Z,96937.44
2023-06-07T19:27:26.765Z,96945.53
2023-06-07T19:32:30.401Z,96944.44
2023-06-07T19:37:32.351Z,96947.22
2023-06-07T19:42:36.025Z,96949.50
2023-06-07T19:47:38.028Z,96949.66
2023-06-07T19:52:42.867Z,96958.53
2023-06-07T19:57:44.617Z,96961.94
2023-06-07T20:02:48.071Z,96962.59
2023-06-07T20:07:51.336Z,96962.09
2023-06-07T20:12:54.274Z,96963.91
2023-06-07T20:17:57.134Z,96971.22
2023-06-07T20:22:59.242Z,96972.63
2023-06-07T20:28:01.581Z,96975.81
2023-06-07T20:33:03.420Z,96988.09
2023-06-07T20:38:05.179Z,96990.06
2023-06-07T20:43:06.932Z,96981.25
2023-06-07T20:48:09.109Z,96979.06
2023-06-07T20:53:10.863Z,96990.28
2023-06-07T20:58:12.667Z,96975.47
2023-06-07T21:03:14.838Z,96976.88
2023-06-07T21:08:16.640Z,96984.03
2023-06-07T21:13:18.689Z,96985.78
2023-06-07T21:18:20.533Z,96996.78
2023-06-07T21:23:22.597Z,96991.47
2023-06-07T21:28:24.458Z,96996.44
2023-06-07T21:33:28.767Z,96999.63
2023-06-07T21:38:30.589Z,96997.41
2023-06-07T21:43:32.310Z,97001.22
2023-06-07T21:48:37.123Z,96997.44
2023-06-07T21:53:38.953Z,96994.44
2023-06-07T21:58:40.756Z,97000.88
2023-06-07T22:03:42.599Z,96996.41
2023-06-07T22:08:44.312Z,96990.91
2023-06-07T22:13:46.039Z,96994.63
2023-06-07T22:18:49.628Z,96996.28
2023-06-07T22:23:53.031Z,96986.63
2023-06-07T22:29:00.839Z,96987.03
2023-06-07T22:34:04.301Z,96986.84
2023-06-07T22:39:12.001Z,96980.31
2023-06-07T22:44:13.822Z,96990.53
2023-06-07T22:49:17.716Z,96991.38
2023-06-07T22:54:19.562Z,96984.81
2023-06-07T22:59:22.309Z,96991.84
2023-06-07T23:04:24.473Z,96991.97
2023-06-07T23:09:26.832Z,96993.38
2023-06-07T23:14:28.864Z,96989.09
2023-06-07T23:19:30.734Z,96986.16
2023-06-07T23:24:32.452Z,96986.22
2023-06-07T23:29:34.408Z,96985.41
2023-06-07T23:34:38.228Z,96982.34
2023-06-07T23:39:39.970Z,96981.88
2023-06-07T23:44:41.869Z,96982.78
2023-06-07T23:49:45.459Z,96983.06
2023-06-07T23:54:47.600Z,96980.72
2023-06-07T23:59:49.531Z,96976.72
